• Join FlightAware (Why Join?)
  • Login
  • US Flag 
05:15PM EDT


 

Airport Tracker/Info


-or-


 

Live Flight TrackerFlight Track Log ✈ AWE2690 ✈ 05-Sep-2013 ✈ KCLT - KIND

Flight Track Log - Related Links

Times and Time Zones

All times are in EDT time to prevent confusion due to time zone crossing. See the AWE2690 flight status page for this flight to view local times or setup timezone preferences in your user account.

Time Position Orientation Groundspeed Altitude Reporting Facility
EDT Latitude Longitude Course Direction KTS MPH feet Rate Location/Type
03:19PM 35.0942 -80.9925 200° South 270 311 4,900  Level Atlanta Center
03:20PM 35.1167 -81.2022 270° West  Level FlightAware Approximate
03:20PM 35.0925 -81.0942 269° West 279 321 8,000  Level Atlanta Center
03:21PM 35.2159 -81.2167 North  Level FlightAware Approximate
03:21PM 35.1439 -81.1458 321° Northwest 258 297 10,200  Level Atlanta Center
03:22PM 35.2933 -81.1511 52° Northeast  Level FlightAware Approximate
03:22PM 35.2353 -81.1272 North 242 278 13,200  Level Atlanta Center
03:23PM 35.3616 -81.0438 52° Northeast  Level FlightAware Approximate
03:23PM 35.3089 -81.0661 34° Northeast 279 321 14,400  Level Atlanta Center
03:24PM 35.3928 -80.9969 34° Northeast 334 384 16,000 1,500 Climbing Atlanta Center
03:25PM 35.4964 -80.9700 12° North 365 420 17,500 1,560 Climbing Atlanta Center
03:26PM 35.5878 -81.0381 329° Northwest 343 395 19,200 1,620 Climbing Atlanta Center
03:27PM 35.6811 -81.1064 329° Northwest 367 422 20,800 1,500 Climbing Atlanta Center
03:28PM 35.7747 -81.1797 328° Northwest 389 448 22,300 1,440 Climbing Atlanta Center
03:29PM 35.8481 -81.2872 310° West 389 448 23,700 840 Climbing Atlanta Center
03:30PM 35.9194 -81.4028 307° West 408 470 24,000 120 Climbing Atlanta Center
03:31PM 35.9969 -81.5183 310° West 437 503 24,000  Level Atlanta Center
03:32PM 36.0786 -81.6392 310° West 448 516 24,000  Level Atlanta Center
03:33PM 36.1581 -81.7550 310° West 448 516 24,000  Level Atlanta Center
03:34PM 36.2353 -81.8739 309° West 443 510 24,000  Level Atlanta Center
03:35PM 36.3058 -81.9775 310° West 443 510 24,000  Level Atlanta Center
03:36PM 36.3808 -82.0944 309° West 443 510 24,000  Level Atlanta Center
03:37PM 36.4575 -82.2111 309° West 443 510 24,000  Level Atlanta Center
03:38PM 36.5364 -82.3308 309° West 443 510 24,000  Level Atlanta Center
03:40PM 36.6914 -82.5692 309° West 440 506 24,000  Level Indianapolis Center
03:41PM 36.7692 -82.6883 309° West 441 507 24,000  Level Indianapolis Center
03:42PM 36.8589 -82.8283 309° West 442 509 24,000  Level Indianapolis Center
03:43PM 36.9397 -82.9522 309° West 448 516 24,000  Level Indianapolis Center
03:44PM 37.0092 -83.0628 308° West 452 520 24,000  Level Indianapolis Center
03:45PM 37.0986 -83.2022 309° West 441 507 24,000  Level Indianapolis Center
03:46PM 37.1758 -83.3233 309° West 443 510 24,000  Level Indianapolis Center
03:47PM 37.2528 -83.4467 308° West 447 514 24,000  Level Indianapolis Center
03:48PM 37.3300 -83.5692 308° West 446 513 24,000  Level Indianapolis Center
03:49PM 37.4069 -83.6933 308° West 449 517 24,000  Level Indianapolis Center
03:50PM 37.4967 -83.8350 309° West 444 511 24,000  Level Indianapolis Center
03:51PM 37.5733 -83.9592 308° West 445 512 24,000  Level Indianapolis Center
03:52PM 37.6508 -84.0828 308° West 448 516 24,000  Level Indianapolis Center
03:54PM 37.7267 -84.2086 307° West 448 516 24,000  Level Indianapolis Center
03:55PM 37.8039 -84.3325 308° West 448 516 24,000  Level Indianapolis Center
03:56PM 37.8800 -84.4572 308° West 448 516 24,000  Level Indianapolis Center
03:57PM 37.9606 -84.5908 307° West 404 465 24,000  Level Indianapolis Center
03:58PM 38.0256 -84.6961 308° West 381 438 24,000  Level Indianapolis Center
03:59PM 38.0914 -84.8044 308° West 385 443 24,000  Level Indianapolis Center
04:00PM 38.1581 -84.9133 308° West 389 448 24,000  Level Indianapolis Center
04:01PM 38.2272 -85.0214 309° West 391 450 24,000  Level Indianapolis Center
04:02PM 38.3114 -85.1664 307° West 437 503 24,000  Level Indianapolis Center
04:03PM 38.3811 -85.2822 308° West 444 511 24,000  Level Indianapolis Center
04:04PM 38.4547 -85.4078 307° West 443 510 24,000 -540 Level Indianapolis Center
04:05PM 38.5278 -85.5303 307° West 436 502 22,900 -1,020 Descending Indianapolis Center
04:06PM 38.6297 -85.6472 318° Northwest 426 490 22,000 -840 Descending Indianapolis Center
04:07PM 38.7489 -85.6658 353° North 428 493 21,200 -1,680 Descending Indianapolis Center
04:08PM 38.8617 -85.6839 353° North 416 479 18,600 -2,340 Descending Indianapolis Center
04:09PM 38.9658 -85.7036 352° North 386 444 16,400 -2,160 Descending Indianapolis Center
04:10PM 39.0650 -85.7206 352° North 365 420 14,200 -2,040 Descending Indianapolis Center
04:11PM 39.1733 -85.7403 352° North 333 383 12,300 -1,680 Descending Indianapolis Center
04:12PM 39.2592 -85.7553 352° North 316 364 10,700 -1,140 Descending Indianapolis Center
04:13PM 39.3378 -85.7981 337° Northwest 322 371 10,000 -360 Descending Indianapolis Center
04:14PM 39.4056 -85.8769 318° Northwest 328 377 10,000  Level Indianapolis Center
04:15PM 39.4686 -85.9519 317° Northwest 315 362 10,000  Level Indianapolis Center
04:16PM 39.5156 -86.0072 318° Northwest 240 276 10,000 -540 Level Indianapolis Center
04:17PM 39.5689 -86.0714 317° Northwest 221 254 9,000 -540 Descending Indianapolis Center
04:18PM 39.6147 -86.1261 317° Northwest 221 254 9,000  Level Indianapolis Center
04:19PM 39.6150 -86.2097 270° West 239 275 9,000  Level Indianapolis Center
04:20PM 39.6414 -86.2681 300° West 227 261 9,000  Level Indianapolis Center
04:21PM 39.6869 -86.2114 44° Northeast 236 272 9,000 -900 Level Indianapolis Center
04:22PM 39.7367 -86.1336 50° Northeast 237 273 7,200 -1,620 Descending Indianapolis Center
04:24PM 39.7792 -86.0761 46° Northeast 230 265 5,700 -1,080 Descending Indianapolis Center
04:25PM 39.8197 -86.0250 44° Northeast 218 251 5,000 -360 Descending Indianapolis Center
04:26PM 39.8606 -85.9750 43° Northeast 208 239 5,000  Level Indianapolis Center
04:27PM 39.8808 -86.0253 298° West 202 232 5,000 -120 Level Indianapolis Center
04:28PM 39.8608 -86.1000 251° West 189 217 4,800 -720 Descending Indianapolis Center
04:29PM 39.8231 -86.1478 224° Southwest 188 216 3,600 -1,080 Descending Indianapolis Center
04:30PM 39.7867 -86.1936 224° Southwest 185 213 2,600 -900 Descending Indianapolis Center
04:31PM 39.7547 -86.2336 224° Southwest 169 194 1,800 -780 Descending Indianapolis Center
04:32PM 39.7250 -86.2731 226° Southwest 154 177 1,000 -540 Descending Indianapolis Center
04:33PM 39.7058 -86.2967 223° Southwest 108 124 800 -120 Descending Indianapolis Center
04:34PM 39.7094 -86.2953 16° North 48 55 800  Level Indianapolis Center
04:35PM 39.7161 -86.2914 24° Northeast 31 36 800  Level Indianapolis Center
04:36PM 39.7164 -86.2964 274° West 43 49 800 120 Level Indianapolis Center
04:37PM 39.7144 -86.2967 186° South 24 28 1,100 240 Climbing Indianapolis Center